createdAt,value
2019-04-05T00:01:56.844Z,3.60
2019-04-05T00:04:27.178Z,4.23
2019-04-05T00:06:57.439Z,3.33
2019-04-05T00:09:27.582Z,3.63
2019-04-05T00:11:57.726Z,4.13
2019-04-05T00:14:27.864Z,4.80
2019-04-05T00:16:57.934Z,4.30
2019-04-05T00:19:28.071Z,4.93
2019-04-05T00:21:58.244Z,5.17
2019-04-05T00:24:29.693Z,5.80
2019-04-05T00:27:01.192Z,4.20
2019-04-05T00:29:31.544Z,4.67
2019-04-05T00:32:01.779Z,4.60
2019-04-05T00:34:31.879Z,4.03
2019-04-05T00:37:02.055Z,4.20
2019-04-05T00:39:32.262Z,4.60
2019-04-05T00:42:02.403Z,5.20
2019-04-05T00:44:32.628Z,4.67
2019-04-05T00:47:02.777Z,4.07
2019-04-05T00:49:32.939Z,5.47
2019-04-05T00:52:03.459Z,4.27
2019-04-05T00:54:33.818Z,3.83
2019-04-05T00:57:04.246Z,3.53
2019-04-05T00:59:34.263Z,4.00
2019-04-05T01:02:04.448Z,2.63
2019-04-05T01:04:34.925Z,3.30
2019-04-05T01:07:05.622Z,2.90
2019-04-05T01:09:35.800Z,2.73
2019-04-05T01:12:05.932Z,2.60
2019-04-05T01:14:37.163Z,2.77
2019-04-05T01:17:07.457Z,2.87
2019-04-05T01:19:40.547Z,2.30
2019-04-05T01:22:13.537Z,2.90
2019-04-05T01:24:44.270Z,2.83
2019-04-05T01:27:14.602Z,3.43
2019-04-05T01:29:45.676Z,2.40
2019-04-05T01:32:16.654Z,3.03
2019-04-05T01:34:47.222Z,3.00
2019-04-05T01:37:17.359Z,2.77
2019-04-05T01:39:47.459Z,3.23
2019-04-05T01:42:17.976Z,3.23
2019-04-05T01:44:48.110Z,3.03
2019-04-05T01:47:18.227Z,3.30
2019-04-05T01:49:48.469Z,4.07
2019-04-05T01:52:18.579Z,3.23
2019-04-05T01:54:50.477Z,3.43
2019-04-05T01:57:20.547Z,3.80
2019-04-05T01:59:50.763Z,3.47
2019-04-05T02:02:20.859Z,3.03
2019-04-05T02:04:52.785Z,3.97
2019-04-05T02:07:24.051Z,3.90
2019-04-05T02:09:54.525Z,3.60
2019-04-05T02:12:24.603Z,4.33
2019-04-05T02:14:55.453Z,4.00
2019-04-05T02:17:25.598Z,4.83
2019-04-05T02:19:56.335Z,4.47
2019-04-05T02:22:27.185Z,4.00
2019-04-05T02:24:58.608Z,4.10
2019-04-05T02:27:29.151Z,3.40
2019-04-05T02:29:59.392Z,5.17
2019-04-05T02:32:29.683Z,4.23
2019-04-05T02:35:00.470Z,4.33
2019-04-05T02:37:30.643Z,4.33
2019-04-05T02:40:00.767Z,4.90
2019-04-05T02:42:33.312Z,4.20
2019-04-05T02:45:04.275Z,4.20
2019-04-05T02:47:37.130Z,4.30
2019-04-05T02:50:08.198Z,4.57
2019-04-05T02:52:38.328Z,3.47
2019-04-05T02:55:10.449Z,4.17
2019-04-05T02:57:43.288Z,3.63
2019-04-05T03:00:13.687Z,3.47
2019-04-05T03:02:44.577Z,3.47
2019-04-05T03:05:15.522Z,4.17
2019-04-05T03:07:45.913Z,3.73
2019-04-05T03:10:54.149Z,4.27
2019-04-05T03:13:26.495Z,4.53
2019-04-05T03:16:01.348Z,4.90
2019-04-05T03:18:34.978Z,3.97
2019-04-05T03:21:07.364Z,4.10
2019-04-05T03:23:44.132Z,3.77
2019-04-05T03:26:17.673Z,4.10
2019-04-05T03:28:52.177Z,4.00
2019-04-05T03:31:24.979Z,4.17
2019-04-05T03:33:55.277Z,4.20
2019-04-05T03:36:26.832Z,3.57
2019-04-05T03:38:57.042Z,4.33
2019-04-05T03:41:27.584Z,4.40
2019-04-05T03:43:57.923Z,3.20
2019-04-05T03:46:28.373Z,3.10
2019-04-05T03:48:58.506Z,3.57
2019-04-05T03:51:29.036Z,4.07
2019-04-05T03:53:59.635Z,4.60
2019-04-05T03:56:32.320Z,4.73
2019-04-05T03:59:02.926Z,5.60
2019-04-05T04:01:33.306Z,5.63
2019-04-05T04:04:03.819Z,8.23
2019-04-05T04:06:34.087Z,6.90
2019-04-05T04:09:05.947Z,5.73
2019-04-05T04:11:36.926Z,5.20
2019-04-05T04:14:07.642Z,7.13
2019-04-05T04:16:38.932Z,4.93
2019-04-05T04:19:09.229Z,5.20
2019-04-05T04:21:59.836Z,4.70
2019-04-05T04:24:30.044Z,5.90
2019-04-05T04:27:00.213Z,8.33
2019-04-05T04:29:30.375Z,14.23
2019-04-05T04:32:00.775Z,12.97
2019-04-05T04:34:31.500Z,8.93
2019-04-05T04:37:02.453Z,9.03
2019-04-05T04:39:32.726Z,7.53
2019-04-05T04:42:03.227Z,9.30
2019-04-05T04:44:39.282Z,7.53
2019-04-05T04:47:25.111Z,10.40
2019-04-05T04:49:43.488Z,8.43
2019-04-05T04:52:14.537Z,8.27
2019-04-05T04:54:44.894Z,8.17
2019-04-05T04:57:14.443Z,8.33
2019-04-05T05:02:54.102Z,7.70
2019-04-05T05:05:24.639Z,8.40
2019-04-05T05:07:54.956Z,7.80
2019-04-05T05:10:25.338Z,8.43
2019-04-05T05:12:55.757Z,9.40
2019-04-05T05:15:27.290Z,7.83
2019-04-05T05:17:59.093Z,10.40
2019-04-05T05:20:30.925Z,9.23
2019-04-05T05:23:01.726Z,9.40
2019-04-05T05:25:32.073Z,9.77
2019-04-05T05:28:02.529Z,9.93
2019-04-05T05:30:32.715Z,10.07
2019-04-05T05:33:03.793Z,9.50
2019-04-05T05:35:36.295Z,9.60
2019-04-05T05:38:06.676Z,11.20
2019-04-05T05:40:36.986Z,7.13
2019-04-05T05:43:07.486Z,6.87
2019-04-05T05:45:37.598Z,6.00
2019-04-05T05:48:08.019Z,6.53
2019-04-05T05:50:38.488Z,6.40
2019-04-05T05:53:08.561Z,7.30
2019-04-05T05:55:38.841Z,8.80
2019-04-05T05:58:09.334Z,8.20
2019-04-05T06:00:39.594Z,7.57
2019-04-05T06:03:11.884Z,8.23
2019-04-05T06:05:42.055Z,10.33
2019-04-05T06:08:12.311Z,9.80
2019-04-05T06:10:42.507Z,11.17
2019-04-05T06:13:14.368Z,10.97
2019-04-05T06:15:44.549Z,11.80
2019-04-05T06:18:14.756Z,12.03
2019-04-05T06:20:45.115Z,10.53
2019-04-05T06:23:15.214Z,11.67
2019-04-05T06:25:46.552Z,14.10
2019-04-05T06:28:17.050Z,13.83
2019-04-05T06:30:47.342Z,12.57
2019-04-05T06:33:30.694Z,13.17
2019-04-05T06:35:51.555Z,14.57
2019-04-05T06:38:22.029Z,14.90
2019-04-05T06:40:52.176Z,15.87
2019-04-05T06:43:22.313Z,15.90
2019-04-05T06:45:52.627Z,15.37
2019-04-05T06:48:22.454Z,16.73
2019-04-05T06:50:52.562Z,15.07
2019-04-05T06:53:22.835Z,14.80
2019-04-05T06:55:52.950Z,17.13
2019-04-05T06:58:28.834Z,14.40
2019-04-05T07:00:57.259Z,12.47
2019-04-05T07:03:28.363Z,12.40
2019-04-05T07:05:59.093Z,13.63
2019-04-05T07:08:29.539Z,13.23
2019-04-05T07:10:59.949Z,14.40
2019-04-05T07:13:30.438Z,16.30
2019-04-05T07:16:02.749Z,12.90
2019-04-05T07:18:36.230Z,14.63
2019-04-05T07:21:07.072Z,15.23
2019-04-05T07:27:02.920Z,13.27
2019-04-05T07:29:36.756Z,16.70
2019-04-05T07:32:06.973Z,12.80
2019-04-05T07:34:37.107Z,15.73
2019-04-05T07:37:07.247Z,15.90
2019-04-05T07:39:36.795Z,16.73
2019-04-05T07:42:06.817Z,14.00
2019-04-05T07:44:37.007Z,12.43
2019-04-05T07:47:07.121Z,15.43
2019-04-05T07:49:37.352Z,12.70
2019-04-05T07:52:07.540Z,13.80
2019-04-05T07:54:37.990Z,14.60
2019-04-05T07:57:08.211Z,12.63
2019-04-05T07:59:38.357Z,13.50
2019-04-05T08:02:08.484Z,11.67
2019-04-05T08:04:38.717Z,11.20
2019-04-05T08:07:10.112Z,11.70
2019-04-05T08:09:40.903Z,11.17
2019-04-05T08:12:11.027Z,12.73
2019-04-05T08:14:41.859Z,11.60
2019-04-05T08:17:12.014Z,11.20
2019-04-05T08:22:38.062Z,9.23
2019-04-05T08:25:08.584Z,7.73
2019-04-05T08:27:39.880Z,9.53
2019-04-05T08:30:10.292Z,8.40
2019-04-05T08:32:40.522Z,5.60
2019-04-05T08:35:10.929Z,6.17
2019-04-05T08:37:41.338Z,7.13
2019-04-05T08:40:11.556Z,6.67
2019-04-05T08:42:41.949Z,7.33
2019-04-05T08:45:12.639Z,7.37
2019-04-05T08:47:42.843Z,6.67
2019-04-05T08:50:13.269Z,6.87
2019-04-05T08:52:43.443Z,6.10
2019-04-05T08:55:13.629Z,5.87
2019-04-05T08:57:43.887Z,7.73
2019-04-05T09:00:14.282Z,6.50
2019-04-05T09:02:44.492Z,6.50
2019-04-05T09:05:14.947Z,3.80
2019-04-05T09:07:45.283Z,4.70
2019-04-05T09:10:15.399Z,4.50
2019-04-05T09:12:46.590Z,4.40
2019-04-05T09:15:17.169Z,4.97
2019-04-05T09:17:47.317Z,5.57
2019-04-05T09:20:17.851Z,4.53
2019-04-05T09:22:48.075Z,6.67
2019-04-05T09:25:19.793Z,5.50
2019-04-05T09:27:50.121Z,7.10
2019-04-05T09:30:20.195Z,4.77
2019-04-05T09:32:50.895Z,3.53
2019-04-05T09:35:21.221Z,3.63
2019-04-05T09:37:51.376Z,3.83
2019-04-05T09:40:21.750Z,3.73
2019-04-05T09:42:51.990Z,3.70
2019-04-05T09:45:22.104Z,6.03
2019-04-05T09:47:52.253Z,3.63
2019-04-05T09:50:22.461Z,4.80
2019-04-05T09:52:52.956Z,4.40
2019-04-05T09:55:23.552Z,3.70
2019-04-05T09:57:53.767Z,3.87
2019-04-05T10:00:26.083Z,3.40
2019-04-05T10:02:56.242Z,3.60
2019-04-05T10:05:26.898Z,5.70
2019-04-05T10:07:57.158Z,4.93
2019-04-05T10:10:27.283Z,3.23
2019-04-05T10:12:58.698Z,3.53
2019-04-05T10:15:57.250Z,3.83
2019-04-05T10:18:43.671Z,3.60
2019-04-05T10:21:14.175Z,3.43
2019-04-05T10:23:44.311Z,3.43
2019-04-05T10:26:15.254Z,3.13
2019-04-05T10:28:47.539Z,2.93
2019-04-05T10:31:18.489Z,3.53
2019-04-05T10:33:48.631Z,3.70
2019-04-05T10:36:20.133Z,4.17
2019-04-05T10:38:50.803Z,3.90
2019-04-05T10:41:22.991Z,4.17
2019-04-05T10:43:53.335Z,3.73
2019-04-05T10:46:24.313Z,6.23
2019-04-05T10:48:54.870Z,5.37
2019-04-05T10:51:25.383Z,3.90
2019-04-05T10:53:55.580Z,4.17
2019-04-05T10:56:36.302Z,4.43
2019-04-05T10:59:06.970Z,4.43
2019-04-05T11:01:37.962Z,4.20
2019-04-05T11:04:09.525Z,5.10
2019-04-05T11:06:41.433Z,5.20
2019-04-05T11:09:11.575Z,4.63
2019-04-05T11:11:41.741Z,3.37
2019-04-05T11:14:14.088Z,3.70
2019-04-05T11:16:44.169Z,3.07
2019-04-05T11:19:14.426Z,3.07
2019-04-05T11:21:47.872Z,4.43
2019-04-05T11:24:16.553Z,3.33
2019-04-05T11:26:47.119Z,4.60
2019-04-05T11:29:17.180Z,2.90
2019-04-05T11:31:57.112Z,3.03
2019-04-05T11:34:19.781Z,3.57
2019-04-05T11:36:50.457Z,3.40
2019-04-05T11:39:21.240Z,2.73
2019-04-05T11:41:53.485Z,2.87
2019-04-05T11:44:25.114Z,3.10
2019-04-05T11:46:56.219Z,2.80
2019-04-05T11:49:28.183Z,3.37
2019-04-05T11:51:59.548Z,3.60
2019-04-05T11:54:29.760Z,3.20
2019-04-05T11:56:59.875Z,2.90
2019-04-05T11:59:30.065Z,3.20
2019-04-05T12:02:20.592Z,3.03
2019-04-05T12:04:51.191Z,3.20
2019-04-05T12:07:24.023Z,2.60
2019-04-05T12:09:53.297Z,2.63
2019-04-05T12:12:25.588Z,2.93
2019-04-05T12:14:55.495Z,2.60
2019-04-05T12:17:27.140Z,2.40
2019-04-05T12:19:57.287Z,4.10
2019-04-05T12:22:29.865Z,2.80
2019-04-05T12:25:02.522Z,2.43
2019-04-05T12:27:31.819Z,3.37
2019-04-05T12:30:02.113Z,1.90
2019-04-05T12:32:36.085Z,2.53
2019-04-05T12:35:04.837Z,2.80
2019-04-05T12:37:35.055Z,2.63
2019-04-05T12:40:09.648Z,2.73
2019-04-05T12:42:42.740Z,3.23
2019-04-05T12:45:15.321Z,1.70
2019-04-05T12:47:46.075Z,2.23
2019-04-05T12:50:16.430Z,2.53
2019-04-05T12:52:46.566Z,2.17
2019-04-05T12:55:18.727Z,2.70
2019-04-05T12:57:48.929Z,2.20
2019-04-05T13:00:20.770Z,1.97
2019-04-05T13:02:51.004Z,2.10
2019-04-05T13:05:21.876Z,2.37
2019-04-05T13:07:52.596Z,2.30
2019-04-05T13:10:26.134Z,2.57
2019-04-05T13:12:57.818Z,3.17
2019-04-05T13:15:27.375Z,3.07
2019-04-05T13:18:00.319Z,3.53
2019-04-05T13:20:30.437Z,3.30
2019-04-05T13:23:04.423Z,3.37
2019-04-05T13:25:33.572Z,3.43
2019-04-05T13:28:13.166Z,2.80
2019-04-05T13:30:35.711Z,2.80
2019-04-05T13:33:05.980Z,3.97
2019-04-05T13:35:36.198Z,3.50
2019-04-05T13:38:06.481Z,3.43
2019-04-05T13:40:36.934Z,3.50
2019-04-05T13:43:07.604Z,3.33
2019-04-05T13:45:37.662Z,3.00
2019-04-05T13:48:09.036Z,3.43
2019-04-05T13:50:41.675Z,3.00
2019-04-05T13:53:11.983Z,2.60
2019-04-05T13:55:42.472Z,3.77
2019-04-05T13:58:13.055Z,3.80
2019-04-05T14:00:48.368Z,2.70
2019-04-05T14:03:16.327Z,3.10
2019-04-05T14:05:46.444Z,3.07
2019-04-05T14:08:16.733Z,2.57
2019-04-05T14:10:46.903Z,2.70
2019-04-05T14:13:17.207Z,4.30
2019-04-05T14:15:48.185Z,2.60
2019-04-05T14:18:20.646Z,2.70
2019-04-05T14:20:50.709Z,2.77
2019-04-05T14:23:23.901Z,2.77
2019-04-05T14:25:55.190Z,4.17
2019-04-05T14:28:25.577Z,2.60
2019-04-05T14:30:55.920Z,2.43
2019-04-05T14:33:27.167Z,3.77
2019-04-05T14:35:57.417Z,5.53
2019-04-05T14:38:27.547Z,2.50
2019-04-05T14:40:57.847Z,2.60
2019-04-05T14:43:28.160Z,5.03
2019-04-05T14:45:58.287Z,3.60
2019-04-05T14:48:31.791Z,2.83
2019-04-05T14:51:00.849Z,3.80
2019-04-05T14:53:32.716Z,2.67
2019-04-05T14:56:03.102Z,3.00
2019-04-05T14:58:33.476Z,2.80
2019-04-05T15:01:05.526Z,2.93
2019-04-05T15:03:35.635Z,2.93
2019-04-05T15:06:08.143Z,3.07
2019-04-05T15:08:38.618Z,3.00
2019-04-05T15:11:11.037Z,2.57
2019-04-05T15:13:40.840Z,5.47
2019-04-05T15:16:14.413Z,2.70
2019-04-05T15:18:46.334Z,3.17
2019-04-05T15:21:16.496Z,2.57
2019-04-05T15:23:46.663Z,2.83
2019-04-05T15:26:20.556Z,5.60
2019-04-05T15:28:48.299Z,2.17
2019-04-05T15:31:18.449Z,4.90
2019-04-05T15:33:48.906Z,2.77
2019-04-05T15:36:19.112Z,3.03
2019-04-05T15:38:49.820Z,10.87
2019-04-05T15:41:19.985Z,3.20
2019-04-05T15:43:50.039Z,2.63
2019-04-05T15:46:21.225Z,2.80
2019-04-05T15:48:52.473Z,2.90
2019-04-05T15:51:24.851Z,2.53
2019-04-05T15:53:54.495Z,5.93
2019-04-05T15:56:24.772Z,2.50
2019-04-05T15:58:54.946Z,3.30
2019-04-05T16:01:25.183Z,3.40
2019-04-05T16:03:55.621Z,3.30
2019-04-05T16:06:25.964Z,3.27
2019-04-05T16:08:58.607Z,2.50
2019-04-05T16:11:28.647Z,2.57
2019-04-05T16:13:58.798Z,2.43
2019-04-05T16:16:30.084Z,2.40
2019-04-05T16:19:00.308Z,2.57
2019-04-05T16:21:30.927Z,2.30
2019-04-05T16:24:02.679Z,2.40
2019-04-05T16:26:34.219Z,2.15
2019-04-05T16:29:04.658Z,2.95
2019-04-05T16:31:34.890Z,3.17
2019-04-05T16:34:06.564Z,2.77
2019-04-05T16:36:37.736Z,3.17
2019-04-05T16:39:13.254Z,2.52
2019-04-05T16:41:43.526Z,2.83
2019-04-05T16:44:13.754Z,2.73
2019-04-05T16:46:44.056Z,2.37
2019-04-05T16:49:15.575Z,2.17
2019-04-05T16:51:45.898Z,2.73
2019-04-05T16:54:18.150Z,3.90
2019-04-05T16:56:48.483Z,2.70
2019-04-05T16:59:18.695Z,5.10
2019-04-05T17:01:48.909Z,5.73
2019-04-05T17:04:19.153Z,2.70
2019-04-05T17:06:49.320Z,3.93
2019-04-05T17:09:19.832Z,4.33
2019-04-05T17:11:51.588Z,4.43
2019-04-05T17:14:23.159Z,3.17
2019-04-05T17:16:54.010Z,2.83
2019-04-05T17:19:24.887Z,2.83
2019-04-05T17:21:55.206Z,3.07
2019-04-05T17:24:25.597Z,3.33
2019-04-05T17:26:56.050Z,2.60
2019-04-05T17:29:26.490Z,3.40
2019-04-05T17:31:56.914Z,2.57
2019-04-05T17:34:27.222Z,2.50
2019-04-05T17:36:57.595Z,2.13
2019-04-05T17:39:28.382Z,3.03
2019-04-05T17:41:58.978Z,3.37
2019-04-05T17:44:29.273Z,2.70
2019-04-05T17:47:00.248Z,2.83
2019-04-05T17:49:30.557Z,3.50
2019-04-05T17:52:02.992Z,3.60
2019-04-05T17:54:37.470Z,6.03
2019-04-05T17:57:07.776Z,7.23
2019-04-05T17:59:39.029Z,5.10
2019-04-05T18:02:09.962Z,6.00
2019-04-05T18:04:40.344Z,2.97
2019-04-05T18:07:10.915Z,3.53
2019-04-05T18:09:41.119Z,4.43
2019-04-05T18:12:11.214Z,2.53
2019-04-05T18:14:42.325Z,3.07
2019-04-05T18:17:12.624Z,2.90
2019-04-05T18:19:42.970Z,4.17
2019-04-05T18:22:13.221Z,3.03
2019-04-05T18:24:43.529Z,3.20
2019-04-05T18:27:13.784Z,4.63
2019-04-05T18:29:44.062Z,3.73
2019-04-05T18:32:14.683Z,3.53
2019-04-05T18:34:45.114Z,4.50
2019-04-05T18:37:15.436Z,3.20
2019-04-05T18:39:45.616Z,5.73
2019-04-05T18:42:18.842Z,3.03
2019-04-05T18:44:49.327Z,3.33
2019-04-05T18:47:22.047Z,3.93
2019-04-05T18:50:02.375Z,3.70
2019-04-05T18:52:24.872Z,3.67
2019-04-05T18:54:55.010Z,3.80
2019-04-05T18:57:27.502Z,5.20
2019-04-05T18:59:58.587Z,3.37
2019-04-05T19:02:29.292Z,4.37
2019-04-05T19:04:59.485Z,3.20
2019-04-05T19:07:32.058Z,3.27
2019-04-05T19:10:02.337Z,3.30
2019-04-05T19:12:34.391Z,4.67
2019-04-05T19:15:05.293Z,3.33
2019-04-05T19:17:35.640Z,8.93
2019-04-05T19:20:06.680Z,4.17
2019-04-05T19:22:36.766Z,4.67
2019-04-05T19:25:09.051Z,4.10
2019-04-05T19:27:39.407Z,13.13
2019-04-05T19:50:27.199Z,5.10
2019-04-05T19:52:58.302Z,5.47
2019-04-05T19:55:28.761Z,5.73
2019-04-05T19:57:59.035Z,6.67
2019-04-05T20:00:29.616Z,6.80
2019-04-05T20:02:59.883Z,5.37
2019-04-05T20:05:30.131Z,7.70
2019-04-05T20:08:00.349Z,7.77
2019-04-05T20:10:30.770Z,7.13
2019-04-05T20:13:01.150Z,8.50
2019-04-05T20:15:33.668Z,8.67
2019-04-05T20:18:04.124Z,7.37
2019-04-05T20:20:34.443Z,6.57
2019-04-05T20:23:04.595Z,7.33
2019-04-05T20:25:34.755Z,7.07
2019-04-05T20:28:04.999Z,8.90
2019-04-05T20:30:35.197Z,7.77
2019-04-05T20:33:05.400Z,7.80
2019-04-05T20:35:35.603Z,6.30
2019-04-05T20:38:05.920Z,6.03
2019-04-05T20:40:36.102Z,6.77
2019-04-05T20:43:06.417Z,8.33
2019-04-05T20:45:37.761Z,7.77
2019-04-05T20:48:08.612Z,8.63
2019-04-05T20:50:39.945Z,8.07
2019-04-05T20:53:10.304Z,6.70
2019-04-05T20:55:40.492Z,7.17
2019-04-05T20:58:11.041Z,6.73
2019-04-05T21:00:44.227Z,7.33
2019-04-05T21:03:16.510Z,8.60
2019-04-05T21:05:47.549Z,9.43
2019-04-05T21:08:17.891Z,7.10
2019-04-05T21:10:50.447Z,7.37
2019-04-05T21:13:20.772Z,8.77
2019-04-05T21:15:51.114Z,7.47
2019-04-05T21:18:21.428Z,11.03
2019-04-05T21:20:52.752Z,9.77
2019-04-05T21:23:23.207Z,6.83
2019-04-05T21:25:55.334Z,10.67
2019-04-05T21:28:26.411Z,6.60
2019-04-05T21:30:57.076Z,7.53
2019-04-05T21:33:27.400Z,8.20
2019-04-05T21:36:00.597Z,9.43
2019-04-05T21:38:30.782Z,25.43
2019-04-05T21:41:02.564Z,8.33
2019-04-05T21:43:32.822Z,8.10
2019-04-05T21:46:04.594Z,6.53
2019-04-05T21:48:35.105Z,8.30
2019-04-05T21:51:05.210Z,6.43
2019-04-05T21:53:35.470Z,7.83
2019-04-05T21:56:05.572Z,7.60
2019-04-05T21:58:35.705Z,7.60
2019-04-05T22:01:08.384Z,7.20
2019-04-05T22:03:39.145Z,8.60
2019-04-05T22:06:09.351Z,7.60
2019-04-05T22:08:40.720Z,9.07
2019-04-05T22:11:10.906Z,7.53
2019-04-05T22:13:41.131Z,8.60
2019-04-05T22:16:11.358Z,7.43
2019-04-05T22:18:41.516Z,7.63
2019-04-05T22:21:11.734Z,7.63
2019-04-05T22:23:42.105Z,9.50
2019-04-05T22:26:12.278Z,7.67
2019-04-05T22:28:42.833Z,6.43
2019-04-05T22:31:12.973Z,7.50
2019-04-05T22:33:43.172Z,7.63
2019-04-05T22:36:13.439Z,9.00
2019-04-05T22:38:43.693Z,10.13
2019-04-05T22:41:14.065Z,8.03
2019-04-05T22:43:44.294Z,7.20
2019-04-05T22:46:14.476Z,7.97
2019-04-05T22:48:44.772Z,8.03
2019-04-05T22:51:14.890Z,7.63
2019-04-05T22:53:48.564Z,8.80
2019-04-05T22:56:18.822Z,8.17
2019-04-05T22:58:49.143Z,7.73
2019-04-05T23:01:19.739Z,8.53
2019-04-05T23:03:49.968Z,7.30
2019-04-05T23:06:20.136Z,8.67
2019-04-05T23:08:50.181Z,9.20
2019-04-05T23:11:21.774Z,8.90
2019-04-05T23:13:51.903Z,7.40
2019-04-05T23:16:22.083Z,9.43
2019-04-05T23:18:52.209Z,8.67
2019-04-05T23:21:22.593Z,11.00
2019-04-05T23:23:53.289Z,9.00
2019-04-05T23:26:23.480Z,8.80
2019-04-05T23:28:53.657Z,7.97
2019-04-05T23:31:24.193Z,8.43
2019-04-05T23:33:54.351Z,10.57
2019-04-05T23:36:24.414Z,9.97
2019-04-05T23:38:54.586Z,8.10
2019-04-05T23:41:24.771Z,8.80
2019-04-05T23:43:54.929Z,10.50
2019-04-05T23:46:25.125Z,10.37
2019-04-05T23:48:56.166Z,9.63
2019-04-05T23:51:26.290Z,10.43
2019-04-05T23:53:56.713Z,9.77
2019-04-05T23:56:27.135Z,9.00
2019-04-05T23:58:58.297Z,10.47
